Airport ID:1G3
Update Time (UTC):28/01/2023 17:30
Wind Speed (Knots):10
Wind Direction (Magnetic):250
Temperature (°C):3
Dew Point (°C):-6
Humidity (%):53
Altimeter (inHg):30.23
Density Altitude (Feet):
Visibility:10+
Clouds (Hundreds of feet):***
Present Weather:
METAR:METAR 1G3 281730Z AUTO 24009KT 10SM 03/M06 A3023 RMK A01

The data displayed is for advisory purposes only and is not to be used for flight planning or operations.